<?xml version="1.0" encoding="UTF-8" standalone="yes"?>
<gpx version="1.1" creator="MagicMaps Tour Explorer"
     xmlns:xsi="http://www.w3.org/2001/XMLSchema-instance"
     xmlns="http://www.topografix.com/GPX/1/1">
  <trk>
    <name>baerentalkopf_w</name>
    <trkseg>
      <trkpt lat="47.322672224" lon="12.072517751">
        <ele>1194.4</ele>
        <time>2017-01-18T09:32:19</time>
      </trkpt>
      <trkpt lat="47.322571808" lon="12.072346425">
        <ele>1196.0</ele>
        <time>2017-01-18T09:34:05</time>
      </trkpt>
      <trkpt lat="47.322462341" lon="12.072274340">
        <ele>1197.5</ele>
        <time>2017-01-18T09:34:53</time>
      </trkpt>
      <trkpt lat="47.322314736" lon="12.072231844">
        <ele>1197.5</ele>
        <time>2017-01-18T09:35:05</time>
      </trkpt>
      <trkpt lat="47.322204597" lon="12.072150623">
        <ele>1197.7</ele>
        <time>2017-01-18T09:35:26</time>
      </trkpt>
      <trkpt lat="47.321862532" lon="12.072059847">
        <ele>1199.3</ele>
        <time>2017-01-18T09:35:55</time>
      </trkpt>
      <trkpt lat="47.321391972" lon="12.072086670">
        <ele>1200.9</ele>
        <time>2017-01-18T09:36:32</time>
      </trkpt>
      <trkpt lat="47.321252916" lon="12.072055154">
        <ele>1201.9</ele>
        <time>2017-01-18T09:36:45</time>
      </trkpt>
      <trkpt lat="47.321135988" lon="12.071987512">
        <ele>1202.6</ele>
        <time>2017-01-18T09:36:56</time>
      </trkpt>
      <trkpt lat="47.320862822" lon="12.071725912">
        <ele>1203.8</ele>
        <time>2017-01-18T09:37:25</time>
      </trkpt>
      <trkpt lat="47.320668614" lon="12.071677549">
        <ele>1206.4</ele>
        <time>2017-01-18T09:37:56</time>
      </trkpt>
      <trkpt lat="47.320375415" lon="12.071548468">
        <ele>1207.4</ele>
        <time>2017-01-18T09:38:23</time>
      </trkpt>
      <trkpt lat="47.320222445" lon="12.071521562">
        <ele>1208.9</ele>
        <time>2017-01-18T09:38:52</time>
      </trkpt>
      <trkpt lat="47.319992948" lon="12.071430115">
        <ele>1211.2</ele>
        <time>2017-01-18T09:39:16</time>
      </trkpt>
      <trkpt lat="47.319864957" lon="12.071342859">
        <ele>1212.4</ele>
        <time>2017-01-18T09:39:30</time>
      </trkpt>
      <trkpt lat="47.319331281" lon="12.070738859">
        <ele>1221.9</ele>
        <time>2017-01-18T09:40:46</time>
      </trkpt>
      <trkpt lat="47.319170851" lon="12.070508860">
        <ele>1224.2</ele>
        <time>2017-01-18T09:41:11</time>
      </trkpt>
      <trkpt lat="47.319089966" lon="12.070290679">
        <ele>1226.6</ele>
        <time>2017-01-18T09:41:30</time>
      </trkpt>
      <trkpt lat="47.319070939" lon="12.070082473">
        <ele>1228.1</ele>
        <time>2017-01-18T09:41:46</time>
      </trkpt>
      <trkpt lat="47.319077896" lon="12.069744263">
        <ele>1230.4</ele>
        <time>2017-01-18T09:42:11</time>
      </trkpt>
      <trkpt lat="47.319043865" lon="12.069587186">
        <ele>1232.1</ele>
        <time>2017-01-18T09:42:24</time>
      </trkpt>
      <trkpt lat="47.318931548" lon="12.069285270">
        <ele>1233.7</ele>
        <time>2017-01-18T09:42:47</time>
      </trkpt>
      <trkpt lat="47.318869941" lon="12.068962567">
        <ele>1236.5</ele>
        <time>2017-01-18T09:43:16</time>
      </trkpt>
      <trkpt lat="47.318758210" lon="12.068814794">
        <ele>1237.8</ele>
        <time>2017-01-18T09:43:33</time>
      </trkpt>
      <trkpt lat="47.318510525" lon="12.068648413">
        <ele>1239.7</ele>
        <time>2017-01-18T09:44:55</time>
      </trkpt>
      <trkpt lat="47.318240376" lon="12.068894254">
        <ele>1241.5</ele>
        <time>2017-01-18T09:45:09</time>
      </trkpt>
      <trkpt lat="47.317988835" lon="12.068802724">
        <ele>1242.1</ele>
        <time>2017-01-18T09:45:21</time>
      </trkpt>
      <trkpt lat="47.317787753" lon="12.068885705">
        <ele>1283.9</ele>
        <time>2017-01-18T10:02:28</time>
      </trkpt>
      <trkpt lat="47.317836955" lon="12.069011517">
        <ele>1285.2</ele>
        <time>2017-01-18T10:02:47</time>
      </trkpt>
      <trkpt lat="47.317798650" lon="12.069049152">
        <ele>1285.5</ele>
        <time>2017-01-18T10:03:13</time>
      </trkpt>
      <trkpt lat="47.317663701" lon="12.069047727">
        <ele>1287.8</ele>
        <time>2017-01-18T10:03:31</time>
      </trkpt>
      <trkpt lat="47.317544594" lon="12.068922920">
        <ele>1289.8</ele>
        <time>2017-01-18T10:03:49</time>
      </trkpt>
      <trkpt lat="47.317396235" lon="12.068870952">
        <ele>1289.7</ele>
        <time>2017-01-18T10:04:04</time>
      </trkpt>
      <trkpt lat="47.317209402" lon="12.068507262">
        <ele>1296.2</ele>
        <time>2017-01-18T10:04:58</time>
      </trkpt>
      <trkpt lat="47.317192806" lon="12.068344904">
        <ele>1300.6</ele>
        <time>2017-01-18T10:05:30</time>
      </trkpt>
      <trkpt lat="47.317145448" lon="12.068255972">
        <ele>1302.9</ele>
        <time>2017-01-18T10:05:45</time>
      </trkpt>
      <trkpt lat="47.317077806" lon="12.068172824">
        <ele>1305.0</ele>
        <time>2017-01-18T10:06:01</time>
      </trkpt>
      <trkpt lat="47.316839676" lon="12.067998061">
        <ele>1311.1</ele>
        <time>2017-01-18T10:06:55</time>
      </trkpt>
      <trkpt lat="47.316809334" lon="12.068084562">
        <ele>1312.6</ele>
        <time>2017-01-18T10:07:11</time>
      </trkpt>
      <trkpt lat="47.316890219" lon="12.068203501">
        <ele>1313.5</ele>
        <time>2017-01-18T10:07:27</time>
      </trkpt>
      <trkpt lat="47.316937326" lon="12.068370804">
        <ele>1314.4</ele>
        <time>2017-01-18T10:07:46</time>
      </trkpt>
      <trkpt lat="47.316762311" lon="12.068363260">
        <ele>1320.2</ele>
        <time>2017-01-18T10:08:29</time>
      </trkpt>
      <trkpt lat="47.316719983" lon="12.068619998">
        <ele>1332.0</ele>
        <time>2010-02-21T08:46:34</time>
      </trkpt>
      <trkpt lat="47.316629961" lon="12.068629973">
        <ele>1334.9</ele>
        <time>2010-02-21T08:46:49</time>
      </trkpt>
      <trkpt lat="47.316619987" lon="12.068689987">
        <ele>1337.3</ele>
        <time>2010-02-21T08:46:59</time>
      </trkpt>
      <trkpt lat="47.316519991" lon="12.068670038">
        <ele>1345.0</ele>
        <time>2010-02-21T08:48:14</time>
      </trkpt>
      <trkpt lat="47.316540023" lon="12.068780009">
        <ele>1347.9</ele>
        <time>2010-02-21T08:48:26</time>
      </trkpt>
      <trkpt lat="47.316519991" lon="12.068989975">
        <ele>1350.8</ele>
        <time>2010-02-21T08:48:45</time>
      </trkpt>
      <trkpt lat="47.316510016" lon="12.069010008">
        <ele>1352.2</ele>
        <time>2010-02-21T08:48:51</time>
      </trkpt>
      <trkpt lat="47.316419994" lon="12.068959968">
        <ele>1355.6</ele>
        <time>2010-02-21T08:49:07</time>
      </trkpt>
      <trkpt lat="47.316419994" lon="12.069079997">
        <ele>1358.0</ele>
        <time>2010-02-21T08:49:18</time>
      </trkpt>
      <trkpt lat="47.316259984" lon="12.068989975">
        <ele>1362.8</ele>
        <time>2010-02-21T08:49:38</time>
      </trkpt>
      <trkpt lat="47.316180021" lon="12.068889979">
        <ele>1365.2</ele>
        <time>2010-02-21T08:49:50</time>
      </trkpt>
      <trkpt lat="47.316110032" lon="12.068849998">
        <ele>1367.6</ele>
        <time>2010-02-21T08:50:38</time>
      </trkpt>
      <trkpt lat="47.316140039" lon="12.068919986">
        <ele>1369.0</ele>
        <time>2010-02-21T08:51:17</time>
      </trkpt>
      <trkpt lat="47.316159988" lon="12.069079997">
        <ele>1371.0</ele>
        <time>2010-02-21T08:51:40</time>
      </trkpt>
      <trkpt lat="47.316069966" lon="12.069059964">
        <ele>1373.9</ele>
        <time>2010-02-21T08:52:01</time>
      </trkpt>
      <trkpt lat="47.316120006" lon="12.069319971">
        <ele>1379.6</ele>
        <time>2010-02-21T08:52:45</time>
      </trkpt>
      <trkpt lat="47.315910039" lon="12.069309996">
        <ele>1388.3</ele>
        <time>2010-02-21T08:53:33</time>
      </trkpt>
      <trkpt lat="47.315939963" lon="12.069419967">
        <ele>1390.7</ele>
        <time>2010-02-21T08:53:52</time>
      </trkpt>
      <trkpt lat="47.315820018" lon="12.069600010">
        <ele>1396.9</ele>
        <time>2010-02-21T08:54:37</time>
      </trkpt>
      <trkpt lat="47.315860000" lon="12.069660025">
        <ele>1399.8</ele>
        <time>2010-02-21T08:54:50</time>
      </trkpt>
      <trkpt lat="47.315839967" lon="12.069899999">
        <ele>1403.7</ele>
        <time>2010-02-21T08:55:21</time>
      </trkpt>
      <trkpt lat="47.315820018" lon="12.069930006">
        <ele>1404.6</ele>
        <time>2010-02-21T08:55:26</time>
      </trkpt>
      <trkpt lat="47.315729996" lon="12.069930006">
        <ele>1407.5</ele>
        <time>2010-02-21T08:55:42</time>
      </trkpt>
      <trkpt lat="47.315550037" lon="12.070220020">
        <ele>1414.7</ele>
        <time>2010-02-21T08:56:34</time>
      </trkpt>
      <trkpt lat="47.315530004" lon="12.070369972">
        <ele>1417.1</ele>
        <time>2010-02-21T08:56:57</time>
      </trkpt>
      <trkpt lat="47.315400001" lon="12.070689993">
        <ele>1421.9</ele>
        <time>2010-02-21T08:57:40</time>
      </trkpt>
      <trkpt lat="47.315000016" lon="12.070669960">
        <ele>1431.5</ele>
        <time>2010-02-21T08:58:53</time>
      </trkpt>
      <trkpt lat="47.314849980" lon="12.070610030">
        <ele>1437.3</ele>
        <time>2010-02-21T08:59:24</time>
      </trkpt>
      <trkpt lat="47.314830031" lon="12.070559990">
        <ele>1439.2</ele>
        <time>2010-02-21T08:59:32</time>
      </trkpt>
      <trkpt lat="47.314840006" lon="12.070490001">
        <ele>1443.6</ele>
        <time>2010-02-21T09:01:26</time>
      </trkpt>
      <trkpt lat="47.314679995" lon="12.070499975">
        <ele>1445.5</ele>
        <time>2010-02-21T09:01:57</time>
      </trkpt>
      <trkpt lat="47.314600032" lon="12.070429986">
        <ele>1448.8</ele>
        <time>2010-02-21T09:02:09</time>
      </trkpt>
      <trkpt lat="47.314519985" lon="12.070410037">
        <ele>1450.3</ele>
        <time>2010-02-21T09:02:17</time>
      </trkpt>
      <trkpt lat="47.314419989" lon="12.070269976">
        <ele>1454.6</ele>
        <time>2010-02-21T09:02:35</time>
      </trkpt>
      <trkpt lat="47.314350000" lon="12.070359997">
        <ele>1458.0</ele>
        <time>2010-02-21T09:02:49</time>
      </trkpt>
      <trkpt lat="47.314259978" lon="12.070390005">
        <ele>1460.9</ele>
        <time>2010-02-21T09:03:02</time>
      </trkpt>
      <trkpt lat="47.314140033" lon="12.070490001">
        <ele>1466.6</ele>
        <time>2010-02-21T09:03:28</time>
      </trkpt>
      <trkpt lat="47.313920008" lon="12.070480026">
        <ele>1472.4</ele>
        <time>2010-02-21T09:04:06</time>
      </trkpt>
      <trkpt lat="47.313869968" lon="12.070550015">
        <ele>1473.8</ele>
        <time>2010-02-21T09:04:18</time>
      </trkpt>
      <trkpt lat="47.313850019" lon="12.070799964">
        <ele>1479.1</ele>
        <time>2010-02-21T09:04:53</time>
      </trkpt>
      <trkpt lat="47.313739965" lon="12.070850004">
        <ele>1483.5</ele>
        <time>2010-02-21T09:05:19</time>
      </trkpt>
      <trkpt lat="47.313650027" lon="12.070770040">
        <ele>1486.3</ele>
        <time>2010-02-21T09:05:41</time>
      </trkpt>
      <trkpt lat="47.313509965" lon="12.070269976">
        <ele>1500.8</ele>
        <time>2010-02-21T09:07:02</time>
      </trkpt>
      <trkpt lat="47.313479958" lon="12.070299983">
        <ele>1501.2</ele>
        <time>2010-02-21T09:07:20</time>
      </trkpt>
      <trkpt lat="47.313430002" lon="12.070229994">
        <ele>1502.7</ele>
        <time>2010-02-21T09:07:45</time>
      </trkpt>
      <trkpt lat="47.313399995" lon="12.070310041">
        <ele>1505.6</ele>
        <time>2010-02-21T09:08:07</time>
      </trkpt>
      <trkpt lat="47.313360013" lon="12.070329990">
        <ele>1507.5</ele>
        <time>2010-02-21T09:08:18</time>
      </trkpt>
      <trkpt lat="47.313330006" lon="12.070280034">
        <ele>1509.4</ele>
        <time>2010-02-21T09:08:30</time>
      </trkpt>
      <trkpt lat="47.313320031" lon="12.070459994">
        <ele>1513.2</ele>
        <time>2010-02-21T09:09:01</time>
      </trkpt>
      <trkpt lat="47.313279966" lon="12.070520008">
        <ele>1516.6</ele>
        <time>2010-02-21T09:09:15</time>
      </trkpt>
      <trkpt lat="47.313249959" lon="12.070620004">
        <ele>1518.1</ele>
        <time>2010-02-21T09:09:38</time>
      </trkpt>
      <trkpt lat="47.313230010" lon="12.070550015">
        <ele>1520.5</ele>
        <time>2010-02-21T09:09:49</time>
      </trkpt>
      <trkpt lat="47.313100006" lon="12.070399979">
        <ele>1528.2</ele>
        <time>2010-02-21T09:10:34</time>
      </trkpt>
      <trkpt lat="47.313069999" lon="12.070599971">
        <ele>1533.9</ele>
        <time>2010-02-21T09:11:09</time>
      </trkpt>
      <trkpt lat="47.312909989" lon="12.070529982">
        <ele>1538.7</ele>
        <time>2010-02-21T09:11:40</time>
      </trkpt>
      <trkpt lat="47.312760036" lon="12.070429986">
        <ele>1545.0</ele>
        <time>2010-02-21T09:12:34</time>
      </trkpt>
      <trkpt lat="47.312709996" lon="12.070729975">
        <ele>1552.2</ele>
        <time>2010-02-21T09:13:27</time>
      </trkpt>
      <trkpt lat="47.312719971" lon="12.070829971">
        <ele>1553.6</ele>
        <time>2010-02-21T09:13:38</time>
      </trkpt>
      <trkpt lat="47.312679989" lon="12.070970032">
        <ele>1557.0</ele>
        <time>2010-02-21T09:14:03</time>
      </trkpt>
      <trkpt lat="47.312660040" lon="12.070989981">
        <ele>1557.5</ele>
        <time>2010-02-21T09:14:09</time>
      </trkpt>
      <trkpt lat="47.312630033" lon="12.070929967">
        <ele>1558.0</ele>
        <time>2010-02-21T09:14:19</time>
      </trkpt>
      <trkpt lat="47.312489972" lon="12.070829971">
        <ele>1563.2</ele>
        <time>2010-02-21T09:14:58</time>
      </trkpt>
      <trkpt lat="47.312440015" lon="12.070810022">
        <ele>1566.1</ele>
        <time>2010-02-21T09:15:14</time>
      </trkpt>
      <trkpt lat="47.312410008" lon="12.070870036">
        <ele>1568.0</ele>
        <time>2010-02-21T09:15:26</time>
      </trkpt>
      <trkpt lat="47.312349994" lon="12.070819996">
        <ele>1572.8</ele>
        <time>2010-02-21T09:17:12</time>
      </trkpt>
      <trkpt lat="47.312319987" lon="12.070870036">
        <ele>1573.8</ele>
        <time>2010-02-21T09:18:12</time>
      </trkpt>
      <trkpt lat="47.312319987" lon="12.071049996">
        <ele>1580.5</ele>
        <time>2010-02-21T09:18:44</time>
      </trkpt>
      <trkpt lat="47.312289979" lon="12.071089977">
        <ele>1581.0</ele>
        <time>2010-02-21T09:19:05</time>
      </trkpt>
      <trkpt lat="47.312140027" lon="12.070959974">
        <ele>1588.2</ele>
        <time>2010-02-21T09:19:52</time>
      </trkpt>
      <trkpt lat="47.311999965" lon="12.070659986">
        <ele>1599.8</ele>
        <time>2010-02-21T09:21:01</time>
      </trkpt>
      <trkpt lat="47.311989991" lon="12.070810022">
        <ele>1602.7</ele>
        <time>2010-02-21T09:21:26</time>
      </trkpt>
      <trkpt lat="47.311969958" lon="12.070829971">
        <ele>1602.7</ele>
        <time>2010-02-21T09:21:30</time>
      </trkpt>
      <trkpt lat="47.311929977" lon="12.070750007">
        <ele>1603.1</ele>
        <time>2010-02-21T09:22:07</time>
      </trkpt>
      <trkpt lat="47.311869962" lon="12.070499975">
        <ele>1609.4</ele>
        <time>2010-02-21T09:22:44</time>
      </trkpt>
      <trkpt lat="47.311769966" lon="12.070359997">
        <ele>1612.3</ele>
        <time>2010-02-21T09:23:16</time>
      </trkpt>
      <trkpt lat="47.311759992" lon="12.070469968">
        <ele>1613.2</ele>
        <time>2010-02-21T09:23:36</time>
      </trkpt>
      <trkpt lat="47.311789999" lon="12.070640037">
        <ele>1620.4</ele>
        <time>2010-02-21T09:24:03</time>
      </trkpt>
      <trkpt lat="47.311750017" lon="12.070669960">
        <ele>1621.4</ele>
        <time>2010-02-21T09:24:16</time>
      </trkpt>
      <trkpt lat="47.311620014" lon="12.070490001">
        <ele>1623.8</ele>
        <time>2010-02-21T09:24:52</time>
      </trkpt>
      <trkpt lat="47.311569974" lon="12.070459994">
        <ele>1626.7</ele>
        <time>2010-02-21T09:25:05</time>
      </trkpt>
      <trkpt lat="47.311539967" lon="12.070390005">
        <ele>1629.6</ele>
        <time>2010-02-21T09:25:25</time>
      </trkpt>
      <trkpt lat="47.311506523" lon="12.070448007">
        <ele>1621.0</ele>
        <time>2017-01-18T11:17:30</time>
      </trkpt>
      <trkpt lat="47.311470145" lon="12.070335355">
        <ele>1624.0</ele>
        <time>2017-01-18T11:18:05</time>
      </trkpt>
      <trkpt lat="47.311443491" lon="12.070469130">
        <ele>1626.7</ele>
        <time>2017-01-18T11:18:43</time>
      </trkpt>
      <trkpt lat="47.311419351" lon="12.070409032">
        <ele>1629.1</ele>
        <time>2017-01-18T11:19:04</time>
      </trkpt>
      <trkpt lat="47.311321283" lon="12.070332253">
        <ele>1633.8</ele>
        <time>2017-01-18T11:19:35</time>
      </trkpt>
      <trkpt lat="47.311231513" lon="12.070206357">
        <ele>1637.4</ele>
        <time>2017-01-18T11:20:05</time>
      </trkpt>
      <trkpt lat="47.311166972" lon="12.070170986">
        <ele>1637.4</ele>
        <time>2017-01-18T11:20:22</time>
      </trkpt>
      <trkpt lat="47.311108466" lon="12.070187246">
        <ele>1641.6</ele>
        <time>2017-01-18T11:20:52</time>
      </trkpt>
      <trkpt lat="47.310999334" lon="12.070145002">
        <ele>1644.5</ele>
        <time>2017-01-18T11:21:32</time>
      </trkpt>
      <trkpt lat="47.310836054" lon="12.070136033">
        <ele>1652.2</ele>
        <time>2017-01-18T11:22:32</time>
      </trkpt>
      <trkpt lat="47.310780147" lon="12.070159838">
        <ele>1652.5</ele>
        <time>2017-01-18T11:22:50</time>
      </trkpt>
      <trkpt lat="47.310731029" lon="12.070248686">
        <ele>1654.0</ele>
        <time>2017-01-18T11:23:07</time>
      </trkpt>
      <trkpt lat="47.310682917" lon="12.070166208">
        <ele>1655.4</ele>
        <time>2017-01-18T11:23:22</time>
      </trkpt>
      <trkpt lat="47.310611000" lon="12.070132513">
        <ele>1657.7</ele>
        <time>2017-01-18T11:23:38</time>
      </trkpt>
      <trkpt lat="47.310567498" lon="12.070251536">
        <ele>1662.2</ele>
        <time>2017-01-18T11:24:11</time>
      </trkpt>
      <trkpt lat="47.310572024" lon="12.070214152">
        <ele>1661.8</ele>
        <time>2017-01-18T11:24:39</time>
      </trkpt>
      <trkpt lat="47.310451576" lon="12.070112983">
        <ele>1663.2</ele>
        <time>2017-01-18T11:25:10</time>
      </trkpt>
      <trkpt lat="47.310367087" lon="12.069918020">
        <ele>1666.9</ele>
        <time>2017-01-18T11:25:41</time>
      </trkpt>
      <trkpt lat="47.310278239" lon="12.069628257">
        <ele>1670.4</ele>
        <time>2017-01-18T11:26:24</time>
      </trkpt>
      <trkpt lat="47.310233815" lon="12.069354923">
        <ele>1673.6</ele>
        <time>2017-01-18T11:27:02</time>
      </trkpt>
      <trkpt lat="47.310036756" lon="12.069242438">
        <ele>1681.2</ele>
        <time>2017-01-18T11:28:09</time>
      </trkpt>
      <trkpt lat="47.309889654" lon="12.069048733">
        <ele>1687.7</ele>
        <time>2017-01-18T11:29:27</time>
      </trkpt>
      <trkpt lat="47.309755292" lon="12.069051666">
        <ele>1691.5</ele>
        <time>2017-01-18T11:29:55</time>
      </trkpt>
      <trkpt lat="47.309634928" lon="12.068927446">
        <ele>1694.3</ele>
        <time>2017-01-18T11:30:24</time>
      </trkpt>
      <trkpt lat="47.309502577" lon="12.068841448">
        <ele>1697.1</ele>
        <time>2017-01-18T11:30:53</time>
      </trkpt>
      <trkpt lat="47.309392691" lon="12.068816470">
        <ele>1700.4</ele>
        <time>2017-01-18T11:31:21</time>
      </trkpt>
      <trkpt lat="47.309343992" lon="12.068572473">
        <ele>1706.0</ele>
        <time>2017-01-18T11:32:13</time>
      </trkpt>
      <trkpt lat="47.309312811" lon="12.068698453">
        <ele>1708.4</ele>
        <time>2017-01-18T11:32:33</time>
      </trkpt>
      <trkpt lat="47.309186244" lon="12.068470297">
        <ele>1713.3</ele>
        <time>2017-01-18T11:33:47</time>
      </trkpt>
      <trkpt lat="47.309168810" lon="12.068381198">
        <ele>1715.0</ele>
        <time>2017-01-18T11:34:00</time>
      </trkpt>
      <trkpt lat="47.309126817" lon="12.068337863">
        <ele>1716.4</ele>
        <time>2017-01-18T11:34:16</time>
      </trkpt>
      <trkpt lat="47.309101336" lon="12.068495359">
        <ele>1720.3</ele>
        <time>2017-01-18T11:34:52</time>
      </trkpt>
      <trkpt lat="47.309019864" lon="12.068389580">
        <ele>1724.5</ele>
        <time>2017-01-18T11:35:37</time>
      </trkpt>
      <trkpt lat="47.308910899" lon="12.068314813">
        <ele>1729.3</ele>
        <time>2017-01-18T11:36:24</time>
      </trkpt>
      <trkpt lat="47.308843005" lon="12.068307856">
        <ele>1733.3</ele>
        <time>2017-01-18T11:36:49</time>
      </trkpt>
      <trkpt lat="47.308817273" lon="12.068500640">
        <ele>1738.3</ele>
        <time>2017-01-18T11:37:42</time>
      </trkpt>
      <trkpt lat="47.308668578" lon="12.068361752">
        <ele>1742.9</ele>
        <time>2017-01-18T11:38:24</time>
      </trkpt>
      <trkpt lat="47.308653407" lon="12.068441464">
        <ele>1744.9</ele>
        <time>2017-01-18T11:38:40</time>
      </trkpt>
      <trkpt lat="47.308679642" lon="12.068635086">
        <ele>1749.2</ele>
        <time>2017-01-18T11:41:45</time>
      </trkpt>
      <trkpt lat="47.308584759" lon="12.068570713">
        <ele>1752.1</ele>
        <time>2017-01-18T11:42:37</time>
      </trkpt>
      <trkpt lat="47.308479650" lon="12.068663333">
        <ele>1754.0</ele>
        <time>2017-01-18T11:43:01</time>
      </trkpt>
      <trkpt lat="47.308455678" lon="12.068776404">
        <ele>1756.0</ele>
        <time>2017-01-18T11:43:16</time>
      </trkpt>
      <trkpt lat="47.308413349" lon="12.068808507">
        <ele>1758.5</ele>
        <time>2017-01-18T11:43:55</time>
      </trkpt>
      <trkpt lat="47.308345875" lon="12.068840358">
        <ele>1759.1</ele>
        <time>2017-01-18T11:44:49</time>
      </trkpt>
      <trkpt lat="47.308244202" lon="12.068787552">
        <ele>1763.8</ele>
        <time>2017-01-18T11:45:16</time>
      </trkpt>
      <trkpt lat="47.308215620" lon="12.068818901">
        <ele>1765.1</ele>
        <time>2017-01-18T11:45:28</time>
      </trkpt>
      <trkpt lat="47.308180332" lon="12.069133054">
        <ele>1770.5</ele>
        <time>2017-01-18T11:46:27</time>
      </trkpt>
      <trkpt lat="47.308070194" lon="12.069448046">
        <ele>1779.5</ele>
        <time>2017-01-18T11:47:38</time>
      </trkpt>
      <trkpt lat="47.308049407" lon="12.069397839">
        <ele>1778.8</ele>
        <time>2017-01-18T11:49:36</time>
      </trkpt>
      <trkpt lat="47.308070026" lon="12.069402952">
        <ele>1779.2</ele>
        <time>2017-01-18T11:50:16</time>
      </trkpt>
      <trkpt lat="47.308062818" lon="12.069370681">
        <ele>1778.5</ele>
        <time>2017-01-18T11:52:58</time>
      </trkpt>
      <trkpt lat="47.307780012" lon="12.069245037">
        <ele>1787.9</ele>
        <time>2017-01-18T11:55:42</time>
      </trkpt>
      <trkpt lat="47.307782611" lon="12.069268757">
        <ele>1788.5</ele>
        <time>2017-01-18T11:56:13</time>
      </trkpt>
      <trkpt lat="47.307678508" lon="12.069244701">
        <ele>1789.1</ele>
        <time>2017-01-18T11:57:28</time>
      </trkpt>
      <trkpt lat="47.307562083" lon="12.069161134">
        <ele>1795.2</ele>
        <time>2017-01-18T11:58:08</time>
      </trkpt>
      <trkpt lat="47.307492765" lon="12.069160044">
        <ele>1796.0</ele>
        <time>2017-01-18T11:59:21</time>
      </trkpt>
      <trkpt lat="47.307457980" lon="12.069202792">
        <ele>1797.5</ele>
        <time>2017-01-18T11:59:31</time>
      </trkpt>
      <trkpt lat="47.307366617" lon="12.069407394">
        <ele>1801.6</ele>
        <time>2017-01-18T12:00:37</time>
      </trkpt>
      <trkpt lat="47.307249438" lon="12.069555251">
        <ele>1805.9</ele>
        <time>2017-01-18T12:01:11</time>
      </trkpt>
      <trkpt lat="47.307203338" lon="12.069589114">
        <ele>1806.9</ele>
        <time>2017-01-18T12:01:27</time>
      </trkpt>
      <trkpt lat="47.307055816" lon="12.069800422">
        <ele>1811.4</ele>
        <time>2017-01-18T12:02:51</time>
      </trkpt>
      <trkpt lat="47.306903936" lon="12.069880720">
        <ele>1816.2</ele>
        <time>2017-01-18T12:03:33</time>
      </trkpt>
      <trkpt lat="47.306881892" lon="12.069981638">
        <ele>1818.8</ele>
        <time>2017-01-18T12:04:18</time>
      </trkpt>
      <trkpt lat="47.306930171" lon="12.070113653">
        <ele>1819.9</ele>
        <time>2017-01-18T12:05:03</time>
      </trkpt>
      <trkpt lat="47.306724144" lon="12.070171824">
        <ele>1827.5</ele>
        <time>2017-01-18T12:06:35</time>
      </trkpt>
      <trkpt lat="47.306660609" lon="12.070157994">
        <ele>1830.1</ele>
        <time>2017-01-18T12:07:19</time>
      </trkpt>
      <trkpt lat="47.306681480" lon="12.070474662">
        <ele>1836.2</ele>
        <time>2017-01-18T12:08:46</time>
      </trkpt>
      <trkpt lat="47.306563379" lon="12.070488408">
        <ele>1839.5</ele>
        <time>2017-01-18T12:09:14</time>
      </trkpt>
      <trkpt lat="47.306353413" lon="12.070440212">
        <ele>1846.2</ele>
        <time>2017-01-18T12:10:08</time>
      </trkpt>
      <trkpt lat="47.306320723" lon="12.070459574">
        <ele>1847.6</ele>
        <time>2017-01-18T12:10:49</time>
      </trkpt>
      <trkpt lat="47.306295997" lon="12.070546327">
        <ele>1847.0</ele>
        <time>2017-01-18T12:11:12</time>
      </trkpt>
      <trkpt lat="47.306309910" lon="12.070613550">
        <ele>1849.9</ele>
        <time>2017-01-18T12:11:26</time>
      </trkpt>
      <trkpt lat="47.306274371" lon="12.070685634">
        <ele>1852.1</ele>
        <time>2017-01-18T12:11:41</time>
      </trkpt>
      <trkpt lat="47.306137495" lon="12.070694938">
        <ele>1857.7</ele>
        <time>2017-01-18T12:12:22</time>
      </trkpt>
      <trkpt lat="47.306048982" lon="12.070749504">
        <ele>1859.3</ele>
        <time>2017-01-18T12:13:02</time>
      </trkpt>
      <trkpt lat="47.305862904" lon="12.071205648">
        <ele>1871.6</ele>
        <time>2017-01-18T12:14:48</time>
      </trkpt>
      <trkpt lat="47.305730553" lon="12.071360042">
        <ele>1876.3</ele>
        <time>2017-01-18T12:15:43</time>
      </trkpt>
      <trkpt lat="47.305715298" lon="12.071447130">
        <ele>1878.5</ele>
        <time>2017-01-18T12:15:58</time>
      </trkpt>
      <trkpt lat="47.305732146" lon="12.071620049">
        <ele>1882.8</ele>
        <time>2017-01-18T12:16:40</time>
      </trkpt>
      <trkpt lat="47.305770367" lon="12.071708227">
        <ele>1883.2</ele>
        <time>2017-01-18T12:17:57</time>
      </trkpt>
      <trkpt lat="47.305790484" lon="12.071906962">
        <ele>1890.5</ele>
        <time>2017-01-18T12:18:39</time>
      </trkpt>
      <trkpt lat="47.305583032" lon="12.071959097">
        <ele>1896.0</ele>
        <time>2017-01-18T12:19:37</time>
      </trkpt>
      <trkpt lat="47.305541709" lon="12.072000420">
        <ele>1897.4</ele>
        <time>2017-01-18T12:19:49</time>
      </trkpt>
      <trkpt lat="47.305511283" lon="12.072097734">
        <ele>1899.4</ele>
        <time>2017-01-18T12:20:05</time>
      </trkpt>
      <trkpt lat="47.305596694" lon="12.072300827">
        <ele>1905.6</ele>
        <time>2017-01-18T12:20:50</time>
      </trkpt>
      <trkpt lat="47.305463757" lon="12.072449438">
        <ele>1909.8</ele>
        <time>2017-01-18T12:21:44</time>
      </trkpt>
      <trkpt lat="47.305608680" lon="12.072639875">
        <ele>1907.7</ele>
        <time>2017-01-18T12:22:12</time>
      </trkpt>
      <trkpt lat="47.305686297" lon="12.072670553">
        <ele>1910.1</ele>
        <time>2017-01-18T12:22:28</time>
      </trkpt>
      <trkpt lat="47.305716807" lon="12.072734926">
        <ele>1909.6</ele>
        <time>2017-01-18T12:22:52</time>
      </trkpt>
      <trkpt lat="47.305749916" lon="12.072858475">
        <ele>1911.1</ele>
        <time>2017-01-18T12:23:07</time>
      </trkpt>
      <trkpt lat="47.305733403" lon="12.072958974">
        <ele>1910.7</ele>
        <time>2017-01-18T12:23:24</time>
      </trkpt>
      <trkpt lat="47.305688057" lon="12.073031981">
        <ele>1913.9</ele>
        <time>2017-01-18T12:23:43</time>
      </trkpt>
      <trkpt lat="47.305724686" lon="12.073031310">
        <ele>1914.6</ele>
        <time>2017-01-18T12:24:09</time>
      </trkpt>
      <trkpt lat="47.305923672" lon="12.073128875">
        <ele>1919.6</ele>
        <time>2017-01-18T12:25:01</time>
      </trkpt>
      <trkpt lat="47.305801297" lon="12.073302213">
        <ele>1925.5</ele>
        <time>2017-01-18T12:26:25</time>
      </trkpt>
      <trkpt lat="47.305884864" lon="12.073310930">
        <ele>1928.2</ele>
        <time>2017-01-18T12:27:01</time>
      </trkpt>
      <trkpt lat="47.305676155" lon="12.073469935">
        <ele>1933.6</ele>
        <time>2017-01-18T12:28:40</time>
      </trkpt>
      <trkpt lat="47.305671545" lon="12.073536739">
        <ele>1935.2</ele>
        <time>2017-01-18T12:29:24</time>
      </trkpt>
      <trkpt lat="47.305630893" lon="12.073606476">
        <ele>1938.1</ele>
        <time>2017-01-18T12:30:03</time>
      </trkpt>
      <trkpt lat="47.305538859" lon="12.073664311">
        <ele>1940.5</ele>
        <time>2017-01-18T12:31:02</time>
      </trkpt>
      <trkpt lat="47.305595605" lon="12.073756596">
        <ele>1943.2</ele>
        <time>2017-01-18T12:31:39</time>
      </trkpt>
      <trkpt lat="47.305671964" lon="12.073796997">
        <ele>1947.1</ele>
        <time>2017-01-18T12:32:31</time>
      </trkpt>
      <trkpt lat="47.305532824" lon="12.073866986">
        <ele>1946.0</ele>
        <time>2017-01-18T12:33:23</time>
      </trkpt>
      <trkpt lat="47.305523185" lon="12.073966395">
        <ele>1947.8</ele>
        <time>2017-01-18T12:33:36</time>
      </trkpt>
      <trkpt lat="47.305547409" lon="12.073971592">
        <ele>1947.9</ele>
        <time>2017-01-18T12:34:00</time>
      </trkpt>
      <trkpt lat="47.305456130" lon="12.073996570">
        <ele>1952.4</ele>
        <time>2017-01-18T12:34:30</time>
      </trkpt>
      <trkpt lat="47.305452861" lon="12.074061278">
        <ele>1953.6</ele>
        <time>2017-01-18T12:34:48</time>
      </trkpt>
      <trkpt lat="47.305423692" lon="12.074055914">
        <ele>1954.8</ele>
        <time>2017-01-18T12:35:11</time>
      </trkpt>
      <trkpt lat="47.305393768" lon="12.074096063">
        <ele>1955.5</ele>
        <time>2017-01-18T12:35:35</time>
      </trkpt>
      <trkpt lat="47.305396367" lon="12.074286165">
        <ele>1959.7</ele>
        <time>2017-01-18T12:36:03</time>
      </trkpt>
      <trkpt lat="47.305341130" lon="12.074248781">
        <ele>1959.6</ele>
        <time>2017-01-18T12:36:50</time>
      </trkpt>
      <trkpt lat="47.305259993" lon="12.074269569">
        <ele>1962.5</ele>
        <time>2017-01-18T12:37:05</time>
      </trkpt>
      <trkpt lat="47.305136109" lon="12.074391525">
        <ele>1964.9</ele>
        <time>2017-01-18T12:37:35</time>
      </trkpt>
      <trkpt lat="47.305145664" lon="12.074489174">
        <ele>1967.7</ele>
        <time>2017-01-18T12:37:52</time>
      </trkpt>
      <trkpt lat="47.305196626" lon="12.074561510">
        <ele>1968.3</ele>
        <time>2017-01-18T12:38:13</time>
      </trkpt>
      <trkpt lat="47.305056062" lon="12.074501412">
        <ele>1971.1</ele>
        <time>2017-01-18T12:38:43</time>
      </trkpt>
      <trkpt lat="47.304870235" lon="12.074357327">
        <ele>1975.8</ele>
        <time>2017-01-18T12:39:27</time>
      </trkpt>
      <trkpt lat="47.304818435" lon="12.074407116">
        <ele>1978.6</ele>
        <time>2017-01-18T12:39:43</time>
      </trkpt>
      <trkpt lat="47.304784404" lon="12.074273340">
        <ele>1982.5</ele>
        <time>2017-01-18T12:40:40</time>
      </trkpt>
      <trkpt lat="47.304524314" lon="12.074448271">
        <ele>1989.9</ele>
        <time>2017-01-18T12:42:05</time>
      </trkpt>
      <trkpt lat="47.304430688" lon="12.074563270">
        <ele>1993.1</ele>
        <time>2017-01-18T12:42:48</time>
      </trkpt>
      <trkpt lat="47.304219548" lon="12.074577520">
        <ele>2000.6</ele>
        <time>2017-01-18T12:43:43</time>
      </trkpt>
      <trkpt lat="47.304165568" lon="12.074608952">
        <ele>2003.0</ele>
        <time>2017-01-18T12:43:55</time>
      </trkpt>
      <trkpt lat="47.304112846" lon="12.074660417">
        <ele>2003.8</ele>
        <time>2017-01-18T12:44:51</time>
      </trkpt>
      <trkpt lat="47.303902712" lon="12.074716659">
        <ele>2008.3</ele>
        <time>2017-01-18T12:45:28</time>
      </trkpt>
      <trkpt lat="47.303848229" lon="12.074692016">
        <ele>2011.0</ele>
        <time>2017-01-18T12:45:45</time>
      </trkpt>
      <trkpt lat="47.303871363" lon="12.074595541">
        <ele>2013.1</ele>
        <time>2017-01-18T12:45:59</time>
      </trkpt>
      <trkpt lat="47.303836746" lon="12.074463442">
        <ele>2018.5</ele>
        <time>2017-01-18T12:46:49</time>
      </trkpt>
      <trkpt lat="47.303781509" lon="12.074463023">
        <ele>2018.4</ele>
        <time>2017-01-18T12:47:22</time>
      </trkpt>
      <trkpt lat="47.303683860" lon="12.074540220">
        <ele>2020.8</ele>
        <time>2017-01-18T12:47:39</time>
      </trkpt>
      <trkpt lat="47.303432738" lon="12.074561175">
        <ele>2026.8</ele>
        <time>2017-01-18T12:48:29</time>
      </trkpt>
      <trkpt lat="47.303204918" lon="12.074494706">
        <ele>2028.3</ele>
        <time>2017-01-18T12:49:48</time>
      </trkpt>
      <trkpt lat="47.303066868" lon="12.074489761">
        <ele>2029.4</ele>
        <time>2017-01-18T12:50:04</time>
      </trkpt>
      <trkpt lat="47.302876934" lon="12.074372834">
        <ele>2029.9</ele>
        <time>2017-01-18T12:50:31</time>
      </trkpt>
      <trkpt lat="47.302616592" lon="12.074368894">
        <ele>2035.0</ele>
        <time>2017-01-18T12:51:15</time>
      </trkpt>
      <trkpt lat="47.302577449" lon="12.074337630">
        <ele>2035.7</ele>
        <time>2017-01-18T12:51:34</time>
      </trkpt>
      <trkpt lat="47.302594967" lon="12.074219109">
        <ele>2036.6</ele>
        <time>2017-01-18T12:51:47</time>
      </trkpt>
      <trkpt lat="47.302321130" lon="12.074012160">
        <ele>2040.6</ele>
        <time>2017-01-18T12:52:33</time>
      </trkpt>
      <trkpt lat="47.302295566" lon="12.073864304">
        <ele>2040.9</ele>
        <time>2017-01-18T12:52:47</time>
      </trkpt>
      <trkpt lat="47.302169502" lon="12.073654421">
        <ele>2042.0</ele>
        <time>2017-01-18T12:53:15</time>
      </trkpt>
      <trkpt lat="47.302118372" lon="12.073493237">
        <ele>2046.5</ele>
        <time>2017-01-18T12:53:45</time>
      </trkpt>
      <trkpt lat="47.302022651" lon="12.073549815">
        <ele>2048.6</ele>
        <time>2017-01-18T12:54:26</time>
      </trkpt>
      <trkpt lat="47.301954674" lon="12.073552078">
        <ele>2050.6</ele>
        <time>2017-01-18T12:54:40</time>
      </trkpt>
      <trkpt lat="47.301711766" lon="12.073403886">
        <ele>2057.7</ele>
        <time>2017-01-18T12:55:29</time>
      </trkpt>
      <trkpt lat="47.301750323" lon="12.073320989">
        <ele>2060.0</ele>
        <time>2017-01-18T12:55:45</time>
      </trkpt>
      <trkpt lat="47.301887032" lon="12.073221412">
        <ele>2061.4</ele>
        <time>2017-01-18T12:56:10</time>
      </trkpt>
      <trkpt lat="47.301899437" lon="12.073116386">
        <ele>2063.8</ele>
        <time>2017-01-18T12:56:27</time>
      </trkpt>
      <trkpt lat="47.301837746" lon="12.073099120">
        <ele>2065.9</ele>
        <time>2017-01-18T12:57:15</time>
      </trkpt>
      <trkpt lat="47.301773876" lon="12.072959393">
        <ele>2068.6</ele>
        <time>2017-01-18T12:57:34</time>
      </trkpt>
      <trkpt lat="47.301733978" lon="12.072770214">
        <ele>2072.3</ele>
        <time>2017-01-18T12:58:03</time>
      </trkpt>
      <trkpt lat="47.301506661" lon="12.072895272">
        <ele>2077.7</ele>
        <time>2017-01-18T12:58:49</time>
      </trkpt>
      <trkpt lat="47.301360313" lon="12.072906923">
        <ele>2083.5</ele>
        <time>2017-01-18T12:59:43</time>
      </trkpt>
      <trkpt lat="47.301439103" lon="12.072800640">
        <ele>2088.3</ele>
        <time>2017-01-18T13:00:17</time>
      </trkpt>
      <trkpt lat="47.301064264" lon="12.072717575">
        <ele>2098.6</ele>
        <time>2017-01-18T13:02:27</time>
      </trkpt>
      <trkpt lat="47.300975332" lon="12.072577262">
        <ele>2102.2</ele>
        <time>2017-01-18T13:02:53</time>
      </trkpt>
      <trkpt lat="47.300930237" lon="12.072360422">
        <ele>2107.7</ele>
        <time>2017-01-18T13:04:55</time>
      </trkpt>
      <trkpt lat="47.300741812" lon="12.072364362">
        <ele>2109.8</ele>
        <time>2017-01-18T13:05:44</time>
      </trkpt>
      <trkpt lat="47.300514663" lon="12.072438793">
        <ele>2110.3</ele>
        <time>2017-01-18T13:06:10</time>
      </trkpt>
      <trkpt lat="47.300392454" lon="12.072527306">
        <ele>2114.7</ele>
        <time>2017-01-18T13:06:39</time>
      </trkpt>
      <trkpt lat="47.300345013" lon="12.072513057">
        <ele>2117.2</ele>
        <time>2017-01-18T13:06:57</time>
      </trkpt>
      <trkpt lat="47.300335960" lon="12.072446086">
        <ele>2119.3</ele>
        <time>2017-01-18T13:07:22</time>
      </trkpt>
      <trkpt lat="47.300246106" lon="12.072304767">
        <ele>2122.5</ele>
        <time>2017-01-18T13:07:48</time>
      </trkpt>
      <trkpt lat="47.300130436" lon="12.072191527">
        <ele>2125.2</ele>
        <time>2017-01-18T13:08:14</time>
      </trkpt>
      <trkpt lat="47.299881661" lon="12.072134614">
        <ele>2130.8</ele>
        <time>2017-01-18T13:09:24</time>
      </trkpt>
      <trkpt lat="47.299795998" lon="12.072014417">
        <ele>2135.0</ele>
        <time>2017-01-18T13:09:50</time>
      </trkpt>
      <trkpt lat="47.299529370" lon="12.071769414">
        <ele>2139.7</ele>
        <time>2017-01-18T13:11:00</time>
      </trkpt>
      <trkpt lat="47.299364917" lon="12.071755081">
        <ele>2144.8</ele>
        <time>2017-01-18T13:11:48</time>
      </trkpt>
      <trkpt lat="47.299040956" lon="12.071604710">
        <ele>2152.5</ele>
        <time>2017-01-18T13:13:38</time>
      </trkpt>
      <trkpt lat="47.298856638" lon="12.071462972">
        <ele>2157.0</ele>
        <time>2017-01-18T13:14:19</time>
      </trkpt>
      <trkpt lat="47.298745830" lon="12.071432378">
        <ele>2159.7</ele>
        <time>2017-01-18T13:14:53</time>
      </trkpt>
      <trkpt lat="47.298627896" lon="12.071491051">
        <ele>2164.7</ele>
        <time>2017-01-18T13:15:41</time>
      </trkpt>
      <trkpt lat="47.298598979" lon="12.071692301">
        <ele>2167.7</ele>
        <time>2017-01-18T13:16:13</time>
      </trkpt>
      <trkpt lat="47.298556734" lon="12.071786681">
        <ele>2170.3</ele>
        <time>2017-01-18T13:16:55</time>
      </trkpt>
      <trkpt lat="47.298488505" lon="12.071855413">
        <ele>2171.4</ele>
        <time>2017-01-18T13:17:07</time>
      </trkpt>
      <trkpt lat="47.298328830" lon="12.071841247">
        <ele>2171.2</ele>
        <time>2017-01-18T13:17:46</time>
      </trkpt>
      <trkpt lat="47.298183991" lon="12.071750220">
        <ele>2170.2</ele>
        <time>2017-01-18T13:18:05</time>
      </trkpt>
      <trkpt lat="47.298103776" lon="12.071590461">
        <ele>2173.5</ele>
        <time>2017-01-18T13:19:04</time>
      </trkpt>
      <trkpt lat="47.298103189" lon="12.071472779">
        <ele>2175.3</ele>
        <time>2017-01-18T13:19:23</time>
      </trkpt>
      <trkpt lat="47.298072428" lon="12.071418716">
        <ele>2176.3</ele>
        <time>2017-01-18T13:19:42</time>
      </trkpt>
      <trkpt lat="47.298138728" lon="12.071617786">
        <ele>2173.9</ele>
        <time>2017-01-18T13:20:42</time>
      </trkpt>
      <trkpt lat="47.298436789" lon="12.071874524">
        <ele>2170.6</ele>
        <time>2017-01-18T13:21:47</time>
      </trkpt>
      <trkpt lat="47.298479872" lon="12.071888186">
        <ele>2170.6</ele>
        <time>2017-01-18T13:22:17</time>
      </trkpt>
      <trkpt lat="47.298451206" lon="12.071871674">
        <ele>2170.7</ele>
        <time>2017-01-18T13:22:52</time>
      </trkpt>
      <trkpt lat="47.298470149" lon="12.071855497">
        <ele>2170.6</ele>
        <time>2017-01-18T13:23:23</time>
      </trkpt>
      <trkpt lat="47.298423545" lon="12.071859520">
        <ele>2170.7</ele>
        <time>2017-01-18T13:24:46</time>
      </trkpt>
      <trkpt lat="47.298498899" lon="12.071835715">
        <ele>2171.1</ele>
        <time>2017-01-18T13:25:12</time>
      </trkpt>
      <trkpt lat="47.298568636" lon="12.071734378">
        <ele>2170.3</ele>
        <time>2017-01-18T13:25:29</time>
      </trkpt>
      <trkpt lat="47.298613815" lon="12.071601190">
        <ele>2167.2</ele>
        <time>2017-01-18T13:25:46</time>
      </trkpt>
      <trkpt lat="47.298620688" lon="12.071457440">
        <ele>2163.1</ele>
        <time>2017-01-18T13:26:14</time>
      </trkpt>
      <trkpt lat="47.298776926" lon="12.071432965">
        <ele>2160.7</ele>
        <time>2017-01-18T13:26:30</time>
      </trkpt>
      <trkpt lat="47.298913971" lon="12.071472527">
        <ele>2157.4</ele>
        <time>2017-01-18T13:26:41</time>
      </trkpt>
      <trkpt lat="47.299061324" lon="12.071600016">
        <ele>2152.4</ele>
        <time>2017-01-18T13:27:18</time>
      </trkpt>
      <trkpt lat="47.299640430" lon="12.071857592">
        <ele>2141.9</ele>
        <time>2017-01-18T13:27:50</time>
      </trkpt>
      <trkpt lat="47.299710754" lon="12.071939651">
        <ele>2138.7</ele>
        <time>2017-01-18T13:27:56</time>
      </trkpt>
      <trkpt lat="47.299833214" lon="12.072260762">
        <ele>2135.9</ele>
        <time>2017-01-18T13:28:09</time>
      </trkpt>
      <trkpt lat="47.299890798" lon="12.072563516">
        <ele>2132.8</ele>
        <time>2017-01-18T13:28:16</time>
      </trkpt>
      <trkpt lat="47.299940754" lon="12.072954280">
        <ele>2126.5</ele>
        <time>2017-01-18T13:28:28</time>
      </trkpt>
      <trkpt lat="47.299913345" lon="12.073128624">
        <ele>2123.1</ele>
        <time>2017-01-18T13:28:46</time>
      </trkpt>
      <trkpt lat="47.299966235" lon="12.073342614">
        <ele>2122.2</ele>
        <time>2017-01-18T13:28:51</time>
      </trkpt>
      <trkpt lat="47.300040079" lon="12.073439006">
        <ele>2110.1</ele>
        <time>2017-01-18T13:29:31</time>
      </trkpt>
      <trkpt lat="47.300076038" lon="12.073681494">
        <ele>2106.6</ele>
        <time>2017-01-18T13:29:41</time>
      </trkpt>
      <trkpt lat="47.300124569" lon="12.073864723">
        <ele>2100.7</ele>
        <time>2017-01-18T13:29:46</time>
      </trkpt>
      <trkpt lat="47.300143847" lon="12.073871596">
        <ele>2096.9</ele>
        <time>2017-01-18T13:29:49</time>
      </trkpt>
      <trkpt lat="47.300173854" lon="12.074048873">
        <ele>2090.2</ele>
        <time>2017-01-18T13:29:57</time>
      </trkpt>
      <trkpt lat="47.300252980" lon="12.074066559">
        <ele>2086.7</ele>
        <time>2017-01-18T13:30:01</time>
      </trkpt>
      <trkpt lat="47.300452301" lon="12.074013418">
        <ele>2077.9</ele>
        <time>2017-01-18T13:30:15</time>
      </trkpt>
      <trkpt lat="47.300526649" lon="12.074225647">
        <ele>2073.4</ele>
        <time>2017-01-18T13:30:20</time>
      </trkpt>
      <trkpt lat="47.300511310" lon="12.074364955">
        <ele>2060.2</ele>
        <time>2017-01-18T13:30:33</time>
      </trkpt>
      <trkpt lat="47.300629159" lon="12.074824367">
        <ele>2054.7</ele>
        <time>2017-01-18T13:30:40</time>
      </trkpt>
      <trkpt lat="47.300720187" lon="12.074974068">
        <ele>2045.7</ele>
        <time>2017-01-18T13:30:44</time>
      </trkpt>
      <trkpt lat="47.300691186" lon="12.074994184">
        <ele>2033.0</ele>
        <time>2017-01-18T13:30:54</time>
      </trkpt>
      <trkpt lat="47.300718846" lon="12.075221753">
        <ele>2029.5</ele>
        <time>2017-01-18T13:31:01</time>
      </trkpt>
      <trkpt lat="47.300805012" lon="12.075585192">
        <ele>2022.2</ele>
        <time>2017-01-18T13:31:06</time>
      </trkpt>
      <trkpt lat="47.300911378" lon="12.075750148">
        <ele>2013.4</ele>
        <time>2017-01-18T13:31:09</time>
      </trkpt>
      <trkpt lat="47.300925544" lon="12.075760877">
        <ele>2010.3</ele>
        <time>2017-01-18T13:31:10</time>
      </trkpt>
      <trkpt lat="47.300933423" lon="12.075712513">
        <ele>1993.7</ele>
        <time>2017-01-18T13:31:23</time>
      </trkpt>
      <trkpt lat="47.300948426" lon="12.075901693">
        <ele>1991.3</ele>
        <time>2017-01-18T13:31:30</time>
      </trkpt>
      <trkpt lat="47.300915821" lon="12.076014178">
        <ele>1987.1</ele>
        <time>2017-01-18T13:31:35</time>
      </trkpt>
      <trkpt lat="47.300939374" lon="12.076027589">
        <ele>1983.1</ele>
        <time>2017-01-18T13:31:45</time>
      </trkpt>
      <trkpt lat="47.301059905" lon="12.076374851">
        <ele>1980.4</ele>
        <time>2017-01-18T13:31:50</time>
      </trkpt>
      <trkpt lat="47.301194854" lon="12.076939791">
        <ele>1962.7</ele>
        <time>2017-01-18T13:31:56</time>
      </trkpt>
      <trkpt lat="47.301286552" lon="12.077109525">
        <ele>1956.0</ele>
        <time>2017-01-18T13:31:58</time>
      </trkpt>
      <trkpt lat="47.301306752" lon="12.077311361">
        <ele>1948.6</ele>
        <time>2017-01-18T13:32:00</time>
      </trkpt>
      <trkpt lat="47.301387470" lon="12.077669436">
        <ele>1934.1</ele>
        <time>2017-01-18T13:32:04</time>
      </trkpt>
      <trkpt lat="47.301467434" lon="12.077810420">
        <ele>1925.6</ele>
        <time>2017-01-18T13:32:07</time>
      </trkpt>
      <trkpt lat="47.301480509" lon="12.077717716">
        <ele>1912.3</ele>
        <time>2017-01-18T13:32:14</time>
      </trkpt>
      <trkpt lat="47.301669102" lon="12.078051902">
        <ele>1906.9</ele>
        <time>2017-01-18T13:32:30</time>
      </trkpt>
      <trkpt lat="47.301813690" lon="12.078475356">
        <ele>1900.2</ele>
        <time>2017-01-18T13:32:35</time>
      </trkpt>
      <trkpt lat="47.301862305" lon="12.078877436">
        <ele>1891.7</ele>
        <time>2017-01-18T13:32:39</time>
      </trkpt>
      <trkpt lat="47.302022399" lon="12.079339363">
        <ele>1874.5</ele>
        <time>2017-01-18T13:32:44</time>
      </trkpt>
      <trkpt lat="47.302083923" lon="12.079636334">
        <ele>1865.6</ele>
        <time>2017-01-18T13:32:47</time>
      </trkpt>
      <trkpt lat="47.302138908" lon="12.079940513">
        <ele>1856.3</ele>
        <time>2017-01-18T13:32:50</time>
      </trkpt>
      <trkpt lat="47.302220631" lon="12.080666889">
        <ele>1834.0</ele>
        <time>2017-01-18T13:32:57</time>
      </trkpt>
      <trkpt lat="47.302238652" lon="12.080732100">
        <ele>1828.2</ele>
        <time>2017-01-18T13:32:59</time>
      </trkpt>
      <trkpt lat="47.302270923" lon="12.080515428">
        <ele>1809.0</ele>
        <time>2017-01-18T13:33:20</time>
      </trkpt>
      <trkpt lat="47.302337307" lon="12.080836538">
        <ele>1808.2</ele>
        <time>2017-01-18T13:33:26</time>
      </trkpt>
      <trkpt lat="47.302347282" lon="12.081291843">
        <ele>1801.8</ele>
        <time>2017-01-18T13:33:32</time>
      </trkpt>
      <trkpt lat="47.302586837" lon="12.081649415">
        <ele>1786.2</ele>
        <time>2017-01-18T13:33:39</time>
      </trkpt>
      <trkpt lat="47.302738717" lon="12.082341509">
        <ele>1765.4</ele>
        <time>2017-01-18T13:33:47</time>
      </trkpt>
      <trkpt lat="47.302769478" lon="12.082594391">
        <ele>1754.0</ele>
        <time>2017-01-18T13:33:51</time>
      </trkpt>
      <trkpt lat="47.302798061" lon="12.082475536">
        <ele>1732.9</ele>
        <time>2017-01-18T13:34:16</time>
      </trkpt>
      <trkpt lat="47.302823374" lon="12.082940899">
        <ele>1729.6</ele>
        <time>2017-01-18T13:34:23</time>
      </trkpt>
      <trkpt lat="47.302774759" lon="12.083023544">
        <ele>1722.0</ele>
        <time>2017-01-18T13:34:26</time>
      </trkpt>
      <trkpt lat="47.302755397" lon="12.083368041">
        <ele>1706.1</ele>
        <time>2017-01-18T13:34:35</time>
      </trkpt>
      <trkpt lat="47.302763946" lon="12.083315067">
        <ele>1699.9</ele>
        <time>2017-01-18T13:34:41</time>
      </trkpt>
      <trkpt lat="47.302853297" lon="12.083455212">
        <ele>1695.7</ele>
        <time>2017-01-18T13:34:53</time>
      </trkpt>
      <trkpt lat="47.302907780" lon="12.084027445">
        <ele>1685.1</ele>
        <time>2017-01-18T13:35:01</time>
      </trkpt>
      <trkpt lat="47.302891016" lon="12.084147558">
        <ele>1680.7</ele>
        <time>2017-01-18T13:35:03</time>
      </trkpt>
      <trkpt lat="47.302840305" lon="12.084232969">
        <ele>1675.7</ele>
        <time>2017-01-18T13:35:05</time>
      </trkpt>
      <trkpt lat="47.302829409" lon="12.084418545">
        <ele>1664.1</ele>
        <time>2017-01-18T13:35:11</time>
      </trkpt>
      <trkpt lat="47.302985648" lon="12.084441176">
        <ele>1651.6</ele>
        <time>2017-01-18T13:35:45</time>
      </trkpt>
      <trkpt lat="47.302905098" lon="12.084571598">
        <ele>1649.8</ele>
        <time>2017-01-18T13:35:50</time>
      </trkpt>
      <trkpt lat="47.302826894" lon="12.084620716">
        <ele>1647.3</ele>
        <time>2017-01-18T13:35:54</time>
      </trkpt>
      <trkpt lat="47.302772664" lon="12.084745103">
        <ele>1638.0</ele>
        <time>2017-01-18T13:36:07</time>
      </trkpt>
      <trkpt lat="47.302550627" lon="12.085021036">
        <ele>1632.6</ele>
        <time>2017-01-18T13:36:17</time>
      </trkpt>
      <trkpt lat="47.302417774" lon="12.085088594">
        <ele>1625.4</ele>
        <time>2017-01-18T13:36:23</time>
      </trkpt>
      <trkpt lat="47.302449960" lon="12.085246760">
        <ele>1621.1</ele>
        <time>2017-01-18T13:36:27</time>
      </trkpt>
      <trkpt lat="47.302449876" lon="12.085526465">
        <ele>1615.7</ele>
        <time>2017-01-18T13:36:31</time>
      </trkpt>
      <trkpt lat="47.302376283" lon="12.085706675">
        <ele>1605.7</ele>
        <time>2017-01-18T13:36:35</time>
      </trkpt>
      <trkpt lat="47.302337475" lon="12.085710615">
        <ele>1597.6</ele>
        <time>2017-01-18T13:36:39</time>
      </trkpt>
      <trkpt lat="47.302344767" lon="12.085771300">
        <ele>1591.0</ele>
        <time>2017-01-18T13:36:51</time>
      </trkpt>
      <trkpt lat="47.302266816" lon="12.085930808">
        <ele>1589.5</ele>
        <time>2017-01-18T13:36:55</time>
      </trkpt>
      <trkpt lat="47.302150475" lon="12.086092411">
        <ele>1584.5</ele>
        <time>2017-01-18T13:37:00</time>
      </trkpt>
      <trkpt lat="47.302154582" lon="12.086243285">
        <ele>1580.3</ele>
        <time>2017-01-18T13:37:03</time>
      </trkpt>
      <trkpt lat="47.302122731" lon="12.086304305">
        <ele>1576.6</ele>
        <time>2017-01-18T13:37:05</time>
      </trkpt>
      <trkpt lat="47.301860880" lon="12.086605467">
        <ele>1566.6</ele>
        <time>2017-01-18T13:37:12</time>
      </trkpt>
      <trkpt lat="47.301721238" lon="12.086648550">
        <ele>1562.3</ele>
        <time>2017-01-18T13:37:15</time>
      </trkpt>
      <trkpt lat="47.301579835" lon="12.086629774">
        <ele>1550.5</ele>
        <time>2017-01-18T13:37:25</time>
      </trkpt>
      <trkpt lat="47.301551839" lon="12.086698925">
        <ele>1549.2</ele>
        <time>2017-01-18T13:37:27</time>
      </trkpt>
      <trkpt lat="47.301553097" lon="12.086760951">
        <ele>1548.6</ele>
        <time>2017-01-18T13:37:28</time>
      </trkpt>
      <trkpt lat="47.301587379" lon="12.086821385">
        <ele>1547.5</ele>
        <time>2017-01-18T13:37:30</time>
      </trkpt>
      <trkpt lat="47.301581260" lon="12.086872011">
        <ele>1547.0</ele>
        <time>2017-01-18T13:37:31</time>
      </trkpt>
      <trkpt lat="47.301475564" lon="12.086988185">
        <ele>1541.7</ele>
        <time>2017-01-18T13:37:38</time>
      </trkpt>
      <trkpt lat="47.301491071" lon="12.087057587">
        <ele>1538.5</ele>
        <time>2017-01-18T13:37:52</time>
      </trkpt>
      <trkpt lat="47.301707743" lon="12.087228158">
        <ele>1537.9</ele>
        <time>2017-01-18T13:38:04</time>
      </trkpt>
      <trkpt lat="47.302145446" lon="12.087420775">
        <ele>1534.0</ele>
        <time>2017-01-18T13:38:36</time>
      </trkpt>
      <trkpt lat="47.302383492" lon="12.087631915">
        <ele>1531.4</ele>
        <time>2017-01-18T13:38:49</time>
      </trkpt>
      <trkpt lat="47.302599326" lon="12.087750100">
        <ele>1529.8</ele>
        <time>2017-01-18T13:38:59</time>
      </trkpt>
      <trkpt lat="47.302884897" lon="12.087772898">
        <ele>1527.3</ele>
        <time>2017-01-18T13:39:06</time>
      </trkpt>
      <trkpt lat="47.303047003" lon="12.087628981">
        <ele>1521.5</ele>
        <time>2017-01-18T13:39:31</time>
      </trkpt>
      <trkpt lat="47.303118082" lon="12.087638956">
        <ele>1521.0</ele>
        <time>2017-01-18T13:39:51</time>
      </trkpt>
      <trkpt lat="47.303257724" lon="12.087877337">
        <ele>1521.8</ele>
        <time>2017-01-18T13:40:37</time>
      </trkpt>
      <trkpt lat="47.303782851" lon="12.087853784">
        <ele>1519.1</ele>
        <time>2017-01-18T13:41:24</time>
      </trkpt>
      <trkpt lat="47.304026345" lon="12.087982781">
        <ele>1517.5</ele>
        <time>2017-01-18T13:41:29</time>
      </trkpt>
      <trkpt lat="47.304233294" lon="12.088219402">
        <ele>1515.5</ele>
        <time>2017-01-18T13:41:33</time>
      </trkpt>
      <trkpt lat="47.304541329" lon="12.088308837">
        <ele>1511.1</ele>
        <time>2017-01-18T13:41:38</time>
      </trkpt>
      <trkpt lat="47.304767724" lon="12.088102056">
        <ele>1505.1</ele>
        <time>2017-01-18T13:41:43</time>
      </trkpt>
      <trkpt lat="47.305021863" lon="12.088078335">
        <ele>1502.5</ele>
        <time>2017-01-18T13:41:47</time>
      </trkpt>
      <trkpt lat="47.305436432" lon="12.088356195">
        <ele>1497.6</ele>
        <time>2017-01-18T13:41:53</time>
      </trkpt>
      <trkpt lat="47.306045545" lon="12.088519474">
        <ele>1488.8</ele>
        <time>2017-01-18T13:42:01</time>
      </trkpt>
      <trkpt lat="47.306323741" lon="12.088656183">
        <ele>1481.8</ele>
        <time>2017-01-18T13:42:09</time>
      </trkpt>
      <trkpt lat="47.306376714" lon="12.088744696">
        <ele>1478.8</ele>
        <time>2017-01-18T13:42:19</time>
      </trkpt>
      <trkpt lat="47.306468999" lon="12.088795491">
        <ele>1478.4</ele>
        <time>2017-01-18T13:42:37</time>
      </trkpt>
      <trkpt lat="47.307280870" lon="12.088609245">
        <ele>1480.0</ele>
        <time>2017-01-18T13:44:14</time>
      </trkpt>
      <trkpt lat="47.307458818" lon="12.088768166">
        <ele>1479.4</ele>
        <time>2017-01-18T13:44:22</time>
      </trkpt>
      <trkpt lat="47.307807840" lon="12.088966733">
        <ele>1476.1</ele>
        <time>2017-01-18T13:44:29</time>
      </trkpt>
      <trkpt lat="47.308371272" lon="12.089034207">
        <ele>1469.0</ele>
        <time>2017-01-18T13:44:40</time>
      </trkpt>
      <trkpt lat="47.308528852" lon="12.089022892">
        <ele>1465.7</ele>
        <time>2017-01-18T13:44:45</time>
      </trkpt>
      <trkpt lat="47.308804030" lon="12.088923901">
        <ele>1462.6</ele>
        <time>2017-01-18T13:44:57</time>
      </trkpt>
      <trkpt lat="47.309159841" lon="12.088710917">
        <ele>1458.5</ele>
        <time>2017-01-18T13:45:13</time>
      </trkpt>
      <trkpt lat="47.309393780" lon="12.088496005">
        <ele>1455.0</ele>
        <time>2017-01-18T13:45:23</time>
      </trkpt>
      <trkpt lat="47.309478270" lon="12.088462813">
        <ele>1453.2</ele>
        <time>2017-01-18T13:45:32</time>
      </trkpt>
      <trkpt lat="47.309727967" lon="12.088480834">
        <ele>1452.5</ele>
        <time>2017-01-18T13:46:00</time>
      </trkpt>
      <trkpt lat="47.310020495" lon="12.088417215">
        <ele>1455.6</ele>
        <time>2017-01-18T13:46:43</time>
      </trkpt>
      <trkpt lat="47.310255859" lon="12.088250918">
        <ele>1453.8</ele>
        <time>2017-01-18T13:47:07</time>
      </trkpt>
      <trkpt lat="47.311130846" lon="12.087776167">
        <ele>1450.7</ele>
        <time>2017-01-18T13:48:27</time>
      </trkpt>
      <trkpt lat="47.311272668" lon="12.087663431">
        <ele>1448.4</ele>
        <time>2017-01-18T13:48:38</time>
      </trkpt>
      <trkpt lat="47.311402922" lon="12.087637195">
        <ele>1447.1</ele>
        <time>2017-01-18T13:48:52</time>
      </trkpt>
      <trkpt lat="47.311525214" lon="12.087657731">
        <ele>1448.3</ele>
        <time>2017-01-18T13:49:09</time>
      </trkpt>
      <trkpt lat="47.311624121" lon="12.087534182">
        <ele>1448.1</ele>
        <time>2017-01-18T13:49:26</time>
      </trkpt>
      <trkpt lat="47.311793771" lon="12.087144591">
        <ele>1447.7</ele>
        <time>2017-01-18T13:49:41</time>
      </trkpt>
      <trkpt lat="47.312111193" lon="12.086748881">
        <ele>1444.0</ele>
        <time>2017-01-18T13:49:50</time>
      </trkpt>
      <trkpt lat="47.312267935" lon="12.086302880">
        <ele>1439.5</ele>
        <time>2017-01-18T13:50:18</time>
      </trkpt>
      <trkpt lat="47.312382348" lon="12.086077826">
        <ele>1438.8</ele>
        <time>2017-01-18T13:50:35</time>
      </trkpt>
      <trkpt lat="47.312467508" lon="12.085963245">
        <ele>1438.4</ele>
        <time>2017-01-18T13:50:51</time>
      </trkpt>
      <trkpt lat="47.312672529" lon="12.085799379">
        <ele>1438.1</ele>
        <time>2017-01-18T13:51:16</time>
      </trkpt>
      <trkpt lat="47.313176952" lon="12.085508360">
        <ele>1434.8</ele>
        <time>2017-01-18T13:51:34</time>
      </trkpt>
      <trkpt lat="47.313349703" lon="12.085337201">
        <ele>1431.5</ele>
        <time>2017-01-18T13:51:48</time>
      </trkpt>
      <trkpt lat="47.314147996" lon="12.084943671">
        <ele>1425.5</ele>
        <time>2017-01-18T13:52:09</time>
      </trkpt>
      <trkpt lat="47.314318568" lon="12.084784415">
        <ele>1423.0</ele>
        <time>2017-01-18T13:52:12</time>
      </trkpt>
      <trkpt lat="47.314725006" lon="12.084721802">
        <ele>1418.3</ele>
        <time>2017-01-18T13:52:18</time>
      </trkpt>
      <trkpt lat="47.315203026" lon="12.084792210">
        <ele>1407.7</ele>
        <time>2017-01-18T13:52:25</time>
      </trkpt>
      <trkpt lat="47.315662522" lon="12.084755916">
        <ele>1395.0</ele>
        <time>2017-01-18T13:52:36</time>
      </trkpt>
      <trkpt lat="47.315857485" lon="12.084455844">
        <ele>1387.6</ele>
        <time>2017-01-18T13:52:45</time>
      </trkpt>
      <trkpt lat="47.315776767" lon="12.084356267">
        <ele>1378.3</ele>
        <time>2017-01-18T13:53:05</time>
      </trkpt>
      <trkpt lat="47.315742150" lon="12.084212936">
        <ele>1377.8</ele>
        <time>2017-01-18T13:53:07</time>
      </trkpt>
      <trkpt lat="47.315808032" lon="12.083794931">
        <ele>1375.3</ele>
        <time>2017-01-18T13:53:11</time>
      </trkpt>
      <trkpt lat="47.315926552" lon="12.083427887">
        <ele>1369.2</ele>
        <time>2017-01-18T13:53:15</time>
      </trkpt>
      <trkpt lat="47.316148169" lon="12.082953220">
        <ele>1360.5</ele>
        <time>2017-01-18T13:53:24</time>
      </trkpt>
      <trkpt lat="47.316203909" lon="12.082706373">
        <ele>1356.9</ele>
        <time>2017-01-18T13:53:41</time>
      </trkpt>
      <trkpt lat="47.316251937" lon="12.082606377">
        <ele>1356.5</ele>
        <time>2017-01-18T13:53:49</time>
      </trkpt>
      <trkpt lat="47.316412870" lon="12.082464555">
        <ele>1356.2</ele>
        <time>2017-01-18T13:53:57</time>
      </trkpt>
      <trkpt lat="47.316678073" lon="12.082066247">
        <ele>1352.6</ele>
        <time>2017-01-18T13:54:04</time>
      </trkpt>
      <trkpt lat="47.316863313" lon="12.081668107">
        <ele>1348.4</ele>
        <time>2017-01-18T13:54:09</time>
      </trkpt>
      <trkpt lat="47.317291209" lon="12.080864618">
        <ele>1338.0</ele>
        <time>2017-01-18T13:54:20</time>
      </trkpt>
      <trkpt lat="47.317374777" lon="12.080619782">
        <ele>1334.6</ele>
        <time>2017-01-18T13:54:24</time>
      </trkpt>
      <trkpt lat="47.317559682" lon="12.080214433">
        <ele>1326.5</ele>
        <time>2017-01-18T13:54:31</time>
      </trkpt>
      <trkpt lat="47.317692284" lon="12.079997426">
        <ele>1322.3</ele>
        <time>2017-01-18T13:54:35</time>
      </trkpt>
      <trkpt lat="47.317773588" lon="12.079881169">
        <ele>1318.9</ele>
        <time>2017-01-18T13:54:38</time>
      </trkpt>
      <trkpt lat="47.318099057" lon="12.079565255">
        <ele>1309.7</ele>
        <time>2017-01-18T13:54:49</time>
      </trkpt>
      <trkpt lat="47.318340456" lon="12.079098970">
        <ele>1302.9</ele>
        <time>2017-01-18T13:54:56</time>
      </trkpt>
      <trkpt lat="47.318653101" lon="12.078901408">
        <ele>1294.5</ele>
        <time>2017-01-18T13:55:02</time>
      </trkpt>
      <trkpt lat="47.319031628" lon="12.078276034">
        <ele>1284.1</ele>
        <time>2017-01-18T13:55:12</time>
      </trkpt>
      <trkpt lat="47.319152160" lon="12.078137984">
        <ele>1280.4</ele>
        <time>2017-01-18T13:55:15</time>
      </trkpt>
      <trkpt lat="47.319280235" lon="12.078060452">
        <ele>1276.2</ele>
        <time>2017-01-18T13:55:18</time>
      </trkpt>
      <trkpt lat="47.319386769" lon="12.077914020">
        <ele>1272.3</ele>
        <time>2017-01-18T13:55:21</time>
      </trkpt>
      <trkpt lat="47.319536051" lon="12.077829530">
        <ele>1265.6</ele>
        <time>2017-01-18T13:55:27</time>
      </trkpt>
      <trkpt lat="47.319416357" lon="12.077801535">
        <ele>1261.3</ele>
        <time>2017-01-18T13:56:07</time>
      </trkpt>
      <trkpt lat="47.319366233" lon="12.077846881">
        <ele>1262.9</ele>
        <time>2017-01-18T13:56:24</time>
      </trkpt>
      <trkpt lat="47.319302280" lon="12.077731965">
        <ele>1261.8</ele>
        <time>2017-01-18T13:56:31</time>
      </trkpt>
      <trkpt lat="47.319438485" lon="12.077441784">
        <ele>1257.8</ele>
        <time>2017-01-18T13:56:42</time>
      </trkpt>
      <trkpt lat="47.319557173" lon="12.077354779">
        <ele>1256.3</ele>
        <time>2017-01-18T13:56:45</time>
      </trkpt>
      <trkpt lat="47.319664964" lon="12.077094857">
        <ele>1254.0</ele>
        <time>2017-01-18T13:56:49</time>
      </trkpt>
      <trkpt lat="47.319863196" lon="12.076753043">
        <ele>1248.0</ele>
        <time>2017-01-18T13:57:05</time>
      </trkpt>
      <trkpt lat="47.320192354" lon="12.076067487">
        <ele>1247.0</ele>
        <time>2017-01-18T13:57:36</time>
      </trkpt>
      <trkpt lat="47.320246752" lon="12.075549569">
        <ele>1243.0</ele>
        <time>2017-01-18T13:57:42</time>
      </trkpt>
      <trkpt lat="47.320480775" lon="12.075049924">
        <ele>1238.3</ele>
        <time>2017-01-18T13:57:49</time>
      </trkpt>
      <trkpt lat="47.320552608" lon="12.074545752">
        <ele>1233.9</ele>
        <time>2017-01-18T13:57:54</time>
      </trkpt>
      <trkpt lat="47.320721168" lon="12.074150713">
        <ele>1229.9</ele>
        <time>2017-01-18T13:57:58</time>
      </trkpt>
      <trkpt lat="47.320824014" lon="12.074025655">
        <ele>1227.9</ele>
        <time>2017-01-18T13:58:00</time>
      </trkpt>
      <trkpt lat="47.320920322" lon="12.073971760">
        <ele>1225.6</ele>
        <time>2017-01-18T13:58:02</time>
      </trkpt>
      <trkpt lat="47.320984276" lon="12.073894730">
        <ele>1223.0</ele>
        <time>2017-01-18T13:58:04</time>
      </trkpt>
      <trkpt lat="47.321020318" lon="12.073747376">
        <ele>1220.3</ele>
        <time>2017-01-18T13:58:06</time>
      </trkpt>
      <trkpt lat="47.321033310" lon="12.073430289">
        <ele>1216.8</ele>
        <time>2017-01-18T13:58:09</time>
      </trkpt>
      <trkpt lat="47.321096677" lon="12.073249156">
        <ele>1214.8</ele>
        <time>2017-01-18T13:58:11</time>
      </trkpt>
      <trkpt lat="47.321183933" lon="12.073120829">
        <ele>1212.8</ele>
        <time>2017-01-18T13:58:13</time>
      </trkpt>
      <trkpt lat="47.321543349" lon="12.072982527">
        <ele>1207.1</ele>
        <time>2017-01-18T13:58:19</time>
      </trkpt>
      <trkpt lat="47.321853647" lon="12.072726628">
        <ele>1201.6</ele>
        <time>2017-01-18T13:58:24</time>
      </trkpt>
      <trkpt lat="47.321765386" lon="12.072391938">
        <ele>1198.2</ele>
        <time>2017-01-18T13:58:28</time>
      </trkpt>
      <trkpt lat="47.321716603" lon="12.072352208">
        <ele>1197.4</ele>
        <time>2017-01-18T13:58:29</time>
      </trkpt>
      <trkpt lat="47.321185023" lon="12.072227821">
        <ele>1188.7</ele>
        <time>2017-01-18T13:58:37</time>
      </trkpt>
      <trkpt lat="47.321182927" lon="12.072137883">
        <ele>1186.5</ele>
        <time>2017-01-18T13:58:39</time>
      </trkpt>
      <trkpt lat="47.321855659" lon="12.072031852">
        <ele>1177.3</ele>
        <time>2017-01-18T13:58:58</time>
      </trkpt>
    </trkseg>
  </trk>
</gpx>
